Time;durP1;ratioP1;P1;durP2;ratioP2;P2;SDS_P1;SDS_P2;PMS_P1;PMS_P2;Temp;Humidity;BMP_temperature;BMP_pressure;BME280_temperature;BME280_humidity;BME280_pressure;Samples;Min_cycle;Max_cycle;Signal;HPM_P1;HPM_P2
2021/04/13 00:00:06;;;;;;;2.85;2.65;;;;;;;5.04;57.41;102235.34;687069;28;133232;-53
2021/04/13 00:00:34;;;;;;;2.92;2.70;;;;;;;5.04;57.43;102246.06;687385;28;136149;-57
2021/04/13 00:01:16;;;;;;;2.80;2.60;;;;;;;5.02;57.50;102237.28;688612;28;60297;-53
2021/04/13 00:01:38;;;;;;;2.60;2.40;;;;;;;5.03;57.31;102238.97;686124;28;158948;-57
2021/04/13 00:02:26;;;;;;;2.40;2.20;;;;;;;5.05;57.47;102239.75;691315;28;21548;-54
2021/04/13 00:02:49;;;;;;;2.92;2.35;;;;;;;5.05;57.43;102242.44;683009;28;131953;-54
2021/04/13 00:03:10;;;;;;;2.60;2.40;;;;;;;5.04;57.41;102244.22;689544;28;67912;-53
2021/04/13 00:03:32;;;;;;;2.50;2.35;;;;;;;5.04;57.43;102240.69;691549;28;10298;-55
2021/04/13 00:03:57;;;;;;;2.35;2.15;;;;;;;5.03;57.45;102242.53;690560;28;44349;-55
2021/04/13 00:04:20;;;;;;;2.40;2.20;;;;;;;5.04;57.50;102243.38;687735;28;113193;-54
2021/04/13 00:04:41;;;;;;;2.90;2.40;;;;;;;5.03;57.33;102236.28;688668;28;69830;-54
2021/04/13 00:05:08;;;;;;;2.60;2.40;;;;;;;5.03;57.45;102247.00;690939;28;1031;-57
2021/04/13 00:05:33;;;;;;;2.50;2.30;;;;;;;5.02;57.45;102243.47;686808;28;137339;-55
2021/04/13 00:05:55;;;;;;;2.25;2.15;;;;;;;5.02;57.47;102243.47;687455;28;114686;-55
2021/04/13 00:06:20;;;;;;;2.70;2.50;;;;;;;5.01;57.39;102244.44;690839;28;22926;-54
2021/04/13 00:06:44;;;;;;;2.97;2.42;;;;;;;5.01;57.33;102244.44;686563;28;115235;-56
2021/04/13 00:07:06;;;;;;;2.72;2.50;;;;;;;5.01;57.63;102243.59;688697;28;93188;-58
2021/04/13 00:07:30;;;;;;;2.90;2.67;;;;;;;4.99;57.46;102238.34;690427;28;43583;-56
2021/04/13 00:07:52;;;;;;;3.20;2.80;;;;;;;4.98;57.42;102239.28;688650;28;92374;-53
2021/04/13 00:08:17;;;;;;;2.80;2.60;;;;;;;4.96;57.70;102237.69;689369;28;69818;-57
2021/04/13 00:08:38;;;;;;;2.60;2.40;;;;;;;4.96;57.61;102241.22;687133;28;115304;-58
2021/04/13 00:09:11;;;;;;;2.70;2.50;;;;;;;4.96;57.60;102240.38;691446;28;21514;-56
2021/04/13 00:09:33;;;;;;;2.65;2.45;;;;;;;4.94;57.67;102243.16;686925;28;137720;-56
2021/04/13 00:09:55;;;;;;;3.17;2.90;;;;;;;4.95;57.52;102242.16;690452;28;45251;-58
2021/04/13 00:10:24;;;;;;;2.80;2.60;;;;;;;4.94;57.57;102248.50;690306;28;41833;-52
2021/04/13 00:10:49;;;;;;;2.75;2.55;;;;;;;4.93;57.63;102241.41;686197;28;138540;-57
2021/04/13 00:11:11;;;;;;;3.35;2.58;;;;;;;4.93;57.73;102237.91;687456;28;112467;-56
2021/04/13 00:11:32;;;;;;;3.17;2.47;;;;;;;4.94;57.58;102240.47;690222;28;47390;-55
2021/04/13 00:11:56;;;;;;;2.53;2.33;;;;;;;4.95;57.64;102241.31;691282;28;22367;-57
2021/04/13 00:12:21;;;;;;;2.58;2.38;;;;;;;4.95;57.58;102241.31;687957;28;92003;-55
2021/04/13 00:12:43;;;;;;;2.88;2.55;;;;;;;4.93;57.65;102240.56;687703;28;113288;-56
2021/04/13 00:13:05;;;;;;;3.10;2.90;;;;;;;4.92;57.58;102233.50;690162;28;46413;-55
2021/04/13 00:13:28;;;;;;;3.15;2.95;;;;;;;4.94;57.59;102247.66;689508;28;44389;-56
2021/04/13 00:13:50;;;;;;;3.00;2.80;;;;;;;4.91;57.68;102245.19;689801;28;66744;-54
2021/04/13 00:14:14;;;;;;;3.10;2.90;;;;;;;4.90;57.67;102238.94;689819;28;46373;-57
2021/04/13 00:14:37;;;;;;;2.60;2.40;;;;;;;4.90;57.78;102238.09;688202;28;92231;-54
2021/04/13 00:15:01;;;;;;;2.67;2.47;;;;;;;4.90;57.58;102244.31;689425;28;69649;-57
2021/04/13 00:15:26;;;;;;;2.60;2.40;;;;;;;4.87;57.84;102245.38;687916;28;92224;-54
2021/04/13 00:15:50;;;;;;;2.70;2.50;;;;;;;4.87;57.66;102241.81;687863;28;113732;-57
2021/04/13 00:16:15;;;;;;;2.80;2.60;;;;;;;4.85;57.83;102241.09;689499;28;14960;-55
2021/04/13 00:16:36;;;;;;;2.50;2.40;;;;;;;4.84;57.87;102240.25;688157;28;114656;-57
2021/04/13 00:17:02;;;;;;;2.72;2.53;;;;;;;4.85;57.93;102241.09;690714;28;22419;-55
2021/04/13 00:17:26;;;;;;;2.75;2.45;;;;;;;4.83;57.77;102241.19;687062;28;138133;-55
2021/04/13 00:17:47;;;;;;;2.25;2.15;;;;;;;4.84;57.94;102244.72;687620;28;93084;-53
2021/04/13 00:18:11;;;;;;;2.30;2.17;;;;;;;4.83;57.86;102249.22;690464;28;46399;-57
2021/04/13 00:18:34;;;;;;;2.20;2.10;;;;;;;4.81;58.00;102244.91;689348;28;67599;-56
2021/04/13 00:18:55;;;;;;;4.57;2.35;;;;;;;4.81;58.08;102237.75;689367;28;69532;-55
2021/04/13 00:19:20;;;;;;;3.17;2.30;;;;;;;4.81;58.03;102243.13;690198;28;45959;-56
2021/04/13 00:19:43;;;;;;;2.30;2.10;;;;;;;4.83;58.01;102245.69;687859;28;90876;-55
2021/04/13 00:20:09;;;;;;;2.38;2.17;;;;;;;4.84;57.91;102240.25;687894;28;92321;-57
2021/04/13 00:20:45;;;;;;;2.33;2.17;;;;;;;4.85;57.85;102241.94;687901;28;117692;-53
2021/04/13 00:21:10;;;;;;;2.40;2.20;;;;;;;4.84;57.93;102239.34;687207;28;138415;-55
2021/04/13 00:21:35;;;;;;;1.90;1.80;;;;;;;4.82;57.87;102239.47;688687;28;67625;-55
2021/04/13 00:21:56;;;;;;;2.28;2.17;;;;;;;4.82;57.94;102241.28;687866;28;115149;-56
2021/04/13 00:22:19;;;;;;;2.75;2.40;;;;;;;4.81;58.01;102245.78;690916;28;23495;-55
2021/04/13 00:22:40;;;;;;;2.65;2.10;;;;;;;4.81;57.98;102240.44;689646;28;67499;-57
2021/04/13 00:23:03;;;;;;;2.50;2.30;;;;;;;4.83;58.05;102243.00;689190;28;43857;-57
2021/04/13 00:23:25;;;;;;;2.55;2.35;;;;;;;4.83;57.83;102234.97;690561;28;44264;-57
2021/04/13 00:23:46;;;;;;;2.08;1.98;;;;;;;4.82;57.82;102242.13;690280;28;44375;-54
2021/04/13 00:24:16;;;;;;;2.03;1.92;;;;;;;4.81;58.01;102235.09;690980;28;23473;-57
2021/04/13 00:24:37;;;;;;;2.58;2.33;;;;;;;4.82;58.16;102235.94;685733;28;137504;-56
2021/04/13 00:25:00;;;;;;;2.40;2.20;;;;;;;4.85;58.00;102238.41;690260;28;23448;-54
2021/04/13 00:25:26;;;;;;;3.13;2.13;;;;;;;4.85;57.95;102233.06;689814;28;68083;-54
2021/04/13 00:25:49;;;;;;;2.75;2.10;;;;;;;4.84;57.86;102239.34;687830;28;115091;-55
2021/04/13 00:26:18;;;;;;;2.42;2.28;;;;;;;4.84;57.87;102237.56;689114;28;70253;-55
2021/04/13 00:26:39;;;;;;;2.53;1.98;;;;;;;4.85;57.86;102235.72;686308;28;139324;-55
2021/04/13 00:27:01;;;;;;;1.92;1.83;;;;;;;4.83;57.85;102238.50;691234;28;21638;-53
2021/04/13 00:27:24;;;;;;;2.17;2.05;;;;;;;4.83;57.79;102238.50;689463;28;45993;-58
2021/04/13 00:27:47;;;;;;;2.42;2.22;;;;;;;4.84;57.89;102234.88;688945;28;90758;-55
2021/04/13 00:28:08;;;;;;;2.53;2.20;;;;;;;4.84;57.77;102244.72;689260;28;45350;-54
2021/04/13 00:28:31;;;;;;;2.20;2.00;;;;;;;4.83;57.62;102233.16;691271;28;23615;-54
2021/04/13 00:28:54;;;;;;;2.40;2.20;;;;;;;4.82;58.06;102242.13;689870;28;70184;-54
2021/04/13 00:29:19;;;;;;;2.45;2.25;;;;;;;4.81;57.90;102236.88;689592;28;70219;-54
2021/04/13 00:29:41;;;;;;;2.15;2.05;;;;;;;4.81;57.94;102239.56;689242;28;61023;-55
2021/04/13 00:30:05;;;;;;;2.10;2.00;;;;;;;4.81;57.79;102240.44;690231;28;46399;-57
2021/04/13 00:30:29;;;;;;;2.10;2.00;;;;;;;4.83;57.76;102234.97;688420;28;92358;-56
2021/04/13 00:30:54;;;;;;;2.22;2.10;;;;;;;4.82;57.94;102242.13;690832;28;38930;-52
2021/04/13 00:31:38;;;;;;;2.40;2.17;;;;;;;4.82;57.94;102236.78;691402;28;15037;-56
2021/04/13 00:32:01;;;;;;;3.03;1.90;;;;;;;4.83;57.79;102240.34;686006;28;151197;-54
2021/04/13 00:32:23;;;;;;;2.33;2.20;;;;;;;4.82;57.87;102242.13;689575;28;68547;-56
2021/04/13 00:32:50;;;;;;;2.10;2.00;;;;;;;4.82;57.96;102242.13;689228;28;67486;-57
2021/04/13 00:33:14;;;;;;;1.92;1.83;;;;;;;4.81;57.93;102240.44;687223;28;138225;-55
2021/04/13 00:33:37;;;;;;;2.25;2.15;;;;;;;4.80;57.90;102236.03;688691;28;90333;-58
2021/04/13 00:33:58;;;;;;;2.00;1.90;;;;;;;4.81;57.89;102239.56;690406;28;46410;-57
2021/04/13 00:34:25;;;;;;;2.20;2.10;;;;;;;4.81;57.78;102242.25;690897;28;21176;-56
2021/04/13 00:35:10;;;;;;;2.10;2.00;;;;;;;4.81;57.79;102247.59;689715;28;61553;-56
2021/04/13 00:35:33;;;;;;;2.23;2.03;;;;;;;4.80;57.78;102237.88;686413;28;161912;-56
2021/04/13 00:36:09;;;;;;;2.25;2.03;;;;;;;4.79;57.82;102237.00;688444;28;92383;-57
2021/04/13 00:36:31;;;;;;;2.10;2.00;;;;;;;4.79;57.87;102241.50;689691;28;61071;-56
2021/04/13 00:36:55;;;;;;;2.10;2.00;;;;;;;4.78;57.87;102237.09;691176;28;23521;-55
2021/04/13 00:37:23;;;;;;;2.10;2.00;;;;;;;4.79;57.92;102238.81;688117;28;111370;-58
2021/04/13 00:37:45;;;;;;;2.05;1.95;;;;;;;4.80;57.84;102235.19;687374;28;126816;-55
2021/04/13 00:38:19;;;;;;;2.20;2.00;;;;;;;4.81;57.90;102235.09;691574;28;14280;-55
2021/04/13 00:38:41;;;;;;;2.30;2.10;;;;;;;4.80;57.77;102238.72;686736;28;155405;-56
2021/04/13 00:39:17;;;;;;;2.08;1.92;;;;;;;4.82;57.83;102239.47;689427;28;69430;-58
2021/04/13 00:39:38;;;;;;;2.38;2.28;;;;;;;4.82;57.83;102227.91;685241;28;160695;-52
2021/04/13 00:40:20;;;;;;;2.40;2.20;;;;;;;4.85;57.63;102241.94;689770;28;46320;-57
2021/04/13 00:40:42;;;;;;;2.05;1.95;;;;;;;4.86;57.52;102232.94;687023;28;129055;-57
2021/04/13 00:41:15;;;;;;;2.10;2.00;;;;;;;4.85;57.54;102235.72;689561;28;69462;-53
2021/04/13 00:41:36;;;;;;;2.28;2.17;;;;;;;4.85;57.61;102236.56;686760;28;137729;-53
2021/04/13 00:42:00;;;;;;;2.80;1.98;;;;;;;4.85;57.53;102236.56;691199;28;21482;-56
2021/04/13 00:42:25;;;;;;;2.22;2.10;;;;;;;4.85;57.62;102238.41;688656;28;92473;-58
2021/04/13 00:42:46;;;;;;;2.25;2.13;;;;;;;4.85;57.54;102233.06;682918;28;92329;-58
2021/04/13 00:43:10;;;;;;;2.00;1.90;;;;;;;4.86;57.69;102235.63;684653;28;45600;-55
2021/04/13 00:43:31;;;;;;;2.10;2.00;;;;;;;4.85;57.72;102233.91;683097;28;67508;-54
2021/04/13 00:43:53;;;;;;;1.92;1.83;;;;;;;4.85;57.60;102236.56;685548;28;24351;-55
2021/04/13 00:44:16;;;;;;;2.20;2.00;;;;;;;4.86;57.66;102237.47;683769;28;65537;-56
2021/04/13 00:44:41;;;;;;;2.65;1.98;;;;;;;4.85;57.55;102238.41;687153;28;43077;-58
2021/04/13 00:45:10;;;;;;;2.00;1.90;;;;;;;4.83;57.40;102232.31;685900;28;138261;-55
2021/04/13 00:45:34;;;;;;;2.33;2.22;;;;;;;4.83;57.56;102237.66;687440;28;136034;-54
2021/04/13 00:45:57;;;;;;;1.75;1.65;;;;;;;4.80;57.60;102236.03;687922;28;86891;-54
2021/04/13 00:46:20;;;;;;;2.10;2.00;;;;;;;4.80;57.61;102237.88;690397;28;38754;-55
2021/04/13 00:46:43;;;;;;;2.50;2.17;;;;;;;4.79;57.63;102234.31;688740;28;67111;-55
2021/04/13 00:47:07;;;;;;;2.20;2.00;;;;;;;4.80;57.65;102232.50;689214;28;65993;-57
2021/04/13 00:47:33;;;;;;;2.88;2.10;;;;;;;4.80;57.70;102232.50;689396;28;81580;-55
2021/04/13 00:47:55;;;;;;;2.05;1.95;;;;;;;4.81;57.48;102231.53;687059;28;136409;-56
2021/04/13 00:48:20;;;;;;;2.03;1.92;;;;;;;4.80;57.84;102236.03;690758;28;23391;-53
2021/04/13 00:48:43;;;;;;;2.03;1.88;;;;;;;4.79;57.85;102237.00;686748;28;135955;-53
2021/04/13 00:49:04;;;;;;;2.20;2.10;;;;;;;4.78;58.08;102234.41;686155;28;69348;-57
2021/04/13 00:49:29;;;;;;;2.13;2.03;;;;;;;4.80;57.74;102235.19;690557;28;21512;-53
2021/04/13 00:49:52;;;;;;;3.80;2.00;;;;;;;4.81;57.73;102236.88;687363;28;92281;-57
2021/04/13 00:50:20;;;;;;;2.08;1.98;;;;;;;4.82;57.72;102235.94;687859;28;92307;-57
2021/04/13 00:50:43;;;;;;;2.10;2.00;;;;;;;4.81;57.66;102234.22;685816;28;138754;-54
2021/04/13 00:51:07;;;;;;;2.20;2.10;;;;;;;4.81;57.43;102239.56;689358;28;70347;-57
2021/04/13 00:51:32;;;;;;;2.20;2.00;;;;;;;4.80;57.49;102229.84;688361;28;92395;-56
2021/04/13 00:51:55;;;;;;;2.20;2.10;;;;;;;4.79;57.51;102237.00;688395;28;92971;-57
2021/04/13 00:52:20;;;;;;;2.17;1.98;;;;;;;4.80;57.50;102237.88;689171;28;68157;-53
2021/04/13 00:52:45;;;;;;;2.10;2.00;;;;;;;4.80;57.55;102232.50;687649;28;110917;-53
2021/04/13 00:53:09;;;;;;;2.25;1.90;;;;;;;4.79;57.43;102230.78;688163;28;105036;-57
2021/04/13 00:53:33;;;;;;;1.90;1.80;;;;;;;4.78;57.46;102229.94;687594;28;86230;-53
2021/04/13 00:53:58;;;;;;;2.15;1.95;;;;;;;4.77;57.42;102235.38;688690;28;90795;-57
2021/04/13 00:54:26;;;;;;;2.22;1.73;;;;;;;4.77;57.49;102238.06;687093;28;113592;-57
2021/04/13 00:54:49;;;;;;;2.28;2.17;;;;;;;4.77;57.50;102238.91;687080;28;130752;-56
2021/04/13 00:55:13;;;;;;;2.08;1.98;;;;;;;4.75;57.52;102243.53;689188;28;63972;-56
2021/04/13 00:55:39;;;;;;;1.98;1.88;;;;;;;4.73;57.58;102234.72;688759;28;89993;-56
2021/04/13 00:56:05;;;;;;;1.90;1.80;;;;;;;4.72;57.49;102234.81;687247;28;128346;-52
2021/04/13 00:56:27;;;;;;;2.05;1.88;;;;;;;4.71;57.75;102239.31;686545;28;137907;-57
2021/04/13 00:56:48;;;;;;;2.05;1.95;;;;;;;4.69;57.61;102239.44;689947;28;36328;-55
2021/04/13 00:57:15;;;;;;;2.05;1.95;;;;;;;4.71;57.80;102233.13;691373;28;19604;-55
2021/04/13 00:57:39;;;;;;;1.70;1.60;;;;;;;4.69;57.80;102234.06;687057;28;129601;-56
2021/04/13 00:58:07;;;;;;;1.90;1.80;;;;;;;4.69;57.75;102235.91;688653;28;93220;-56
2021/04/13 00:58:31;;;;;;;2.30;2.10;;;;;;;4.68;57.83;102237.69;686884;28;137808;-56
2021/04/13 00:58:58;;;;;;;2.50;2.08;;;;;;;4.68;57.85;102237.69;689097;28;87234;-56
2021/04/13 00:59:21;;;;;;;2.17;2.08;;;;;;;4.68;57.75;102236.84;686978;28;127662;-56
2021/04/13 00:59:43;;;;;;;2.63;2.42;;;;;;;4.69;57.84;102233.22;689385;28;66296;-55
2021/04/13 01:00:07;;;;;;;2.53;2.33;;;;;;;4.66;57.89;102239.63;689979;28;45670;-57
2021/04/13 01:00:40;;;;;;;2.17;2.05;;;;;;;4.66;58.09;102238.78;688842;28;92309;-52
2021/04/13 01:01:07;;;;;;;2.45;2.25;;;;;;;4.66;58.05;102234.28;687487;28;130637;-56
2021/04/13 01:01:31;;;;;;;1.95;1.83;;;;;;;4.65;57.97;102231.69;687473;28;128499;-55
2021/04/13 01:01:56;;;;;;;2.05;1.95;;;;;;;4.65;57.85;102235.22;681585;28;92709;-58
2021/04/13 01:02:19;;;;;;;2.10;2.00;;;;;;;4.66;57.91;102234.28;681689;28;112093;-56
2021/04/13 01:02:41;;;;;;;2.20;2.00;;;;;;;4.66;57.98;102236.94;685772;28;15093;-55
2021/04/13 01:03:05;;;;;;;3.15;2.20;;;;;;;4.66;58.04;102234.28;686233;28;1701;-56
2021/04/13 01:03:28;;;;;;;3.00;2.10;;;;;;;4.67;58.10;102233.31;683663;28;1476;-54
2021/04/13 01:03:54;;;;;;;2.08;1.95;;;;;;;4.68;58.00;102239.53;686915;28;14933;-54
2021/04/13 01:04:19;;;;;;;2.17;2.08;;;;;;;4.67;57.92;102237.78;686474;28;62036;-55
2021/04/13 01:04:50;;;;;;;2.00;1.90;;;;;;;4.66;57.84;102231.59;686701;28;68054;-53
2021/04/13 01:05:17;;;;;;;2.47;2.28;;;;;;;4.67;57.92;102237.78;684949;28;114244;-58
2021/04/13 01:05:40;;;;;;;2.78;2.20;;;;;;;4.67;57.85;102235.13;686861;28;136431;-56
2021/04/13 01:06:02;;;;;;;2.50;2.30;;;;;;;4.66;57.85;102236.09;689121;28;68423;-56
2021/04/13 01:06:25;;;;;;;2.20;2.10;;;;;;;4.67;57.86;102236.00;690053;28;46453;-55
2021/04/13 01:06:58;;;;;;;2.40;2.20;;;;;;;4.65;57.83;102240.56;689117;28;69373;-56
2021/04/13 01:07:28;;;;;;;2.15;2.05;;;;;;;4.65;57.83;102234.38;686856;28;137459;-57
2021/04/13 01:07:51;;;;;;;2.00;1.90;;;;;;;4.65;57.78;102239.72;687366;28;128253;-57
2021/04/13 01:08:32;;;;;;;2.30;2.20;;;;;;;4.64;57.73;102235.31;688993;28;66828;-57
2021/04/13 01:09:04;;;;;;;2.10;2.00;;;;;;;4.63;57.80;102237.16;687486;28;134944;-54
2021/04/13 01:09:28;;;;;;;2.20;2.10;;;;;;;4.60;57.88;102232.00;686434;28;159940;-52
2021/04/13 01:09:50;;;;;;;2.40;2.30;;;;;;;4.59;57.97;102235.66;684848;28;92373;-57
2021/04/13 01:10:14;;;;;;;2.30;2.10;;;;;;;4.60;57.88;102239.19;686030;28;67510;-53
2021/04/13 01:10:36;;;;;;;2.33;2.13;;;;;;;4.58;58.18;102238.44;684619;28;112810;-55
2021/04/13 01:10:58;;;;;;;2.22;2.13;;;;;;;4.58;58.16;102233.09;687655;28;13767;-56
2021/04/13 01:11:26;;;;;;;2.95;2.22;;;;;;;4.59;57.93;102241.00;689208;28;977;-55
2021/04/13 01:11:49;;;;;;;2.35;2.20;;;;;;;4.56;57.94;102233.19;686313;28;135079;-57
2021/04/13 01:12:19;;;;;;;2.13;2.03;;;;;;;4.56;58.03;102237.66;690984;28;15013;-56
2021/04/13 01:12:51;;;;;;;2.80;2.50;;;;;;;4.56;58.13;102240.34;686658;28;61233;-58
2021/04/13 01:13:14;;;;;;;2.25;1.98;;;;;;;4.58;58.07;102233.09;684337;28;128005;-54
2021/04/13 01:13:43;;;;;;;2.95;2.00;;;;;;;4.56;58.15;102238.53;686221;28;69350;-52
2021/04/13 01:14:05;;;;;;;2.65;2.13;;;;;;;4.56;58.03;102230.50;682554;28;150811;-58
2021/04/13 01:14:27;;;;;;;2.30;2.10;;;;;;;4.57;57.89;102237.56;687218;28;46415;-54
2021/04/13 01:14:48;;;;;;;2.00;1.90;;;;;;;4.57;57.84;102231.34;690182;28;37867;-55
2021/04/13 01:15:12;;;;;;;3.30;2.28;;;;;;;4.56;57.94;102235.84;691495;28;8508;-56
2021/04/13 01:15:33;;;;;;;2.20;2.10;;;;;;;4.57;57.75;102231.34;687723;28;115216;-55
2021/04/13 01:15:55;;;;;;;2.22;2.10;;;;;;;4.54;57.82;102240.44;689661;28;45233;-54
2021/04/13 01:16:21;;;;;;;2.20;2.00;;;;;;;4.51;57.89;102237.97;691259;28;1486;-56
2021/04/13 01:16:46;;;;;;;2.00;1.90;;;;;;;4.49;58.23;102231.84;684634;28;115370;-57
2021/04/13 01:17:09;;;;;;;2.30;2.20;;;;;;;4.50;58.17;102238.94;685718;28;101047;-57
2021/04/13 01:17:30;;;;;;;2.55;2.45;;;;;;;4.51;57.92;102229.94;684515;28;40347;-56
2021/04/13 01:17:51;;;;;;;2.65;2.45;;;;;;;4.50;58.09;102241.63;684676;28;21521;-55
2021/04/13 01:18:17;;;;;;;2.50;2.30;;;;;;;4.49;57.94;102235.38;685763;28;24504;-57
2021/04/13 01:18:42;;;;;;;2.47;2.28;;;;;;;4.49;57.85;102234.53;683395;28;127825;-57
2021/04/13 01:19:11;;;;;;;2.50;2.30;;;;;;;4.48;57.92;102238.16;686170;28;82207;-55
2021/04/13 01:19:43;;;;;;;2.50;2.30;;;;;;;4.47;57.78;102244.50;685945;28;151449;-58
2021/04/13 01:20:11;;;;;;;2.58;2.42;;;;;;;4.44;57.91;102242.88;686977;28;137699;-55
2021/04/13 01:20:39;;;;;;;2.70;2.50;;;;;;;4.43;58.03;102241.13;686454;28;138782;-56
2021/04/13 01:21:06;;;;;;;3.20;2.40;;;;;;;4.42;57.90;102242.13;689460;28;61499;-57
2021/04/13 01:21:38;;;;;;;2.55;2.25;;;;;;;4.40;57.92;102244.00;687021;28;136475;-56
2021/04/13 01:22:07;;;;;;;2.20;2.10;;;;;;;4.41;57.91;102244.88;686835;28;156734;-53
2021/04/13 01:22:33;;;;;;;2.60;2.40;;;;;;;4.39;57.85;102244.97;686340;28;146520;-53
2021/04/13 01:23:00;;;;;;;2.47;2.38;;;;;;;4.38;57.89;102245.09;686858;28;137255;-55
2021/04/13 01:23:25;;;;;;;3.30;2.45;;;;;;;4.35;57.95;102239.94;686974;28;137742;-57
2021/04/13 01:23:53;;;;;;;2.60;2.40;;;;;;;4.35;58.06;102245.28;686999;28;116137;-58
2021/04/13 01:24:21;;;;;;;2.65;2.45;;;;;;;4.34;57.92;102249.75;685866;28;138991;-57
2021/04/13 01:24:50;;;;;;;2.25;2.05;;;;;;;4.31;58.00;102249.94;686465;28;61676;-54
2021/04/13 01:25:18;;;;;;;2.50;2.30;;;;;;;4.29;57.99;102247.38;686899;28;60484;-52
2021/04/13 01:25:42;;;;;;;2.97;2.50;;;;;;;4.29;58.08;102246.53;683859;28;129105;-53
2021/04/13 01:26:04;;;;;;;2.63;2.42;;;;;;;4.28;58.08;102243.00;684720;28;90259;-51
2021/04/13 01:26:30;;;;;;;2.75;2.55;;;;;;;4.27;58.27;102246.63;687247;28;46369;-53
2021/04/13 01:26:52;;;;;;;2.33;2.20;;;;;;;4.26;58.20;102247.59;687769;28;102814;-50
2021/04/13 01:27:14;;;;;;;2.40;2.20;;;;;;;4.24;58.18;102243.28;688761;28;69333;-51
2021/04/13 01:27:36;;;;;;;2.40;2.20;;;;;;;4.24;58.14;102245.97;690967;28;19277;-51
2021/04/13 01:27:59;;;;;;;2.72;2.20;;;;;;;4.23;58.11;102246.91;688924;28;45302;-51
2021/04/13 01:28:24;;;;;;;2.50;2.30;;;;;;;4.21;58.32;102249.69;691038;28;15031;-55
2021/04/13 01:28:45;;;;;;;2.33;2.22;;;;;;;4.21;58.26;102247.03;688204;28;91764;-54
2021/04/13 01:29:07;;;;;;;2.63;2.50;;;;;;;4.19;58.28;102240.06;689384;28;46145;-53
2021/04/13 01:29:30;;;;;;;3.33;2.50;;;;;;;4.19;58.42;102238.25;690118;28;46299;-51
2021/04/13 01:29:53;;;;;;;2.85;2.65;;;;;;;4.18;58.35;102241.88;688365;28;69489;-50
2021/04/13 01:30:15;;;;;;;3.55;2.50;;;;;;;4.18;58.52;102241.00;689734;28;67404;-56
2021/04/13 01:30:43;;;;;;;3.00;2.40;;;;;;;4.15;58.62;102242.94;691687;28;863;-54
2021/04/13 01:31:08;;;;;;;2.53;2.42;;;;;;;4.16;58.50;102238.44;686669;28;61611;-55
2021/04/13 01:31:46;;;;;;;2.45;2.35;;;;;;;4.15;58.68;102244.72;685815;28;91593;-52
2021/04/13 01:32:08;;;;;;;2.70;2.38;;;;;;;4.13;58.58;102244.84;682597;28;121304;-54
2021/04/13 01:32:30;;;;;;;3.10;2.42;;;;;;;4.13;58.65;102243.97;685435;28;40063;-54
2021/04/13 01:32:51;;;;;;;2.70;2.50;;;;;;;4.12;58.52;102243.13;683185;28;14382;-51
2021/04/13 01:33:16;;;;;;;2.42;2.30;;;;;;;4.12;58.61;102248.47;684825;28;19372;-56
2021/04/13 01:33:41;;;;;;;2.50;2.30;;;;;;;4.11;58.66;102244.06;681312;28;138699;-52
2021/04/13 01:34:07;;;;;;;2.60;2.40;;;;;;;4.11;58.54;102244.06;683055;28;111446;-53
2021/04/13 01:34:33;;;;;;;3.08;2.42;;;;;;;4.10;58.66;102247.69;683339;28;138102;-55
2021/04/13 01:35:02;;;;;;;2.45;2.30;;;;;;;4.09;58.77;102243.31;686877;28;124779;-52
2021/04/13 01:35:29;;;;;;;2.50;2.30;;;;;;;4.07;58.78;102249.72;686919;28;138386;-50
2021/04/13 01:35:53;;;;;;;2.70;2.50;;;;;;;4.06;58.81;102243.53;687001;28;137942;-51
2021/04/13 01:36:27;;;;;;;2.60;2.30;;;;;;;4.05;58.97;102243.63;687739;28;93074;-54
2021/04/13 01:37:02;;;;;;;2.45;2.35;;;;;;;4.03;58.86;102243.72;689270;28;60473;-54
2021/04/13 01:38:06;;;;;;;2.53;2.42;;;;;;;4.02;59.04;102249.16;677711;28;135855;-56
2021/04/13 01:38:31;;;;;;;2.83;2.67;;;;;;;4.00;59.14;102243.91;680254;28;92186;-57
2021/04/13 01:39:00;;;;;;;2.65;2.45;;;;;;;3.99;59.08;102247.53;678065;28;138030;-57
2021/04/13 01:39:25;;;;;;;2.40;2.20;;;;;;;3.99;59.12;102244.00;682686;28;138629;-52
2021/04/13 01:39:52;;;;;;;2.40;2.20;;;;;;;4.00;59.03;102243.91;685231;28;92280;-57
2021/04/13 01:40:23;;;;;;;2.90;2.50;;;;;;;3.99;59.08;102242.19;685996;28;137191;-56
2021/04/13 01:40:51;;;;;;;2.40;2.30;;;;;;;4.00;59.20;102248.38;686880;28;128736;-54
2021/04/13 01:41:27;;;;;;;2.83;2.63;;;;;;;4.00;59.09;102245.69;685835;28;138853;-56
2021/04/13 01:41:58;;;;;;;2.33;2.20;;;;;;;3.99;59.10;102244.00;686506;28;137965;-55
2021/04/13 01:42:21;;;;;;;2.17;2.08;;;;;;;3.99;58.97;102247.53;687186;28;129091;-55
2021/04/13 01:42:42;;;;;;;2.17;2.08;;;;;;;3.99;59.13;102238.66;689510;28;24717;-53
2021/04/13 01:43:03;;;;;;;2.35;2.20;;;;;;;3.97;59.12;102244.94;690734;28;20758;-55
2021/04/13 01:43:25;;;;;;;2.40;2.30;;;;;;;3.97;59.12;102241.44;690548;28;23727;-58
2021/04/13 01:43:47;;;;;;;2.30;2.20;;;;;;;3.96;59.18;102248.56;690180;28;46360;-52
2021/04/13 01:44:09;;;;;;;2.35;2.17;;;;;;;3.93;59.31;102238.09;691734;28;5519;-52
2021/04/13 01:44:37;;;;;;;2.40;2.22;;;;;;;3.91;59.49;102247.16;690720;28;4227;-58
2021/04/13 01:45:03;;;;;;;2.42;2.22;;;;;;;3.89;59.55;102238.38;687122;28;128345;-53
2021/04/13 01:45:28;;;;;;;2.40;2.20;;;;;;;3.88;59.40;102247.34;689437;28;61609;-53
2021/04/13 01:45:50;;;;;;;2.40;2.20;;;;;;;3.88;59.54;102245.53;689171;28;66282;-53
2021/04/13 01:46:12;;;;;;;2.50;2.40;;;;;;;3.87;59.38;102237.59;691234;28;1503;-52
2021/04/13 01:46:34;;;;;;;3.97;2.58;;;;;;;3.87;59.47;102248.31;691458;28;926;-55
2021/04/13 01:46:55;;;;;;;2.63;2.42;;;;;;;3.86;59.48;102241.25;690890;28;17939;-53
2021/04/13 01:47:18;;;;;;;2.60;2.40;;;;;;;3.85;59.17;102244.88;690229;28;47217;-54
2021/04/13 01:47:40;;;;;;;2.50;2.30;;;;;;;3.84;59.61;102251.16;688956;28;67487;-55
2021/04/13 01:48:03;;;;;;;2.70;2.50;;;;;;;3.84;59.26;102251.16;690173;28;44357;-54
2021/04/13 01:48:25;;;;;;;2.63;2.20;;;;;;;3.83;59.70;102246.78;689290;28;65165;-54
2021/04/13 01:48:47;;;;;;;2.50;2.20;;;;;;;3.82;59.61;102256.59;689922;28;44371;-52
2021/04/13 01:49:08;;;;;;;2.65;2.45;;;;;;;3.81;59.50;102249.56;690242;28;46335;-53
2021/04/13 01:49:32;;;;;;;2.60;2.40;;;;;;;3.78;59.59;102245.25;691159;28;21471;-50
2021/04/13 01:49:55;;;;;;;2.38;2.28;;;;;;;3.79;59.56;102243.44;688456;28;92318;-54
2021/04/13 01:50:19;;;;;;;2.55;2.35;;;;;;;3.78;59.67;102252.44;689125;28;69748;-53
2021/04/13 01:50:42;;;;;;;2.60;2.40;;;;;;;3.76;59.81;102256.97;688408;28;92273;-53
2021/04/13 01:51:05;;;;;;;3.10;2.53;;;;;;;3.76;59.81;102247.19;689921;28;60237;-58
2021/04/13 01:51:31;;;;;;;4.32;2.50;;;;;;;3.75;59.90;102249.94;689536;28;69482;-54
2021/04/13 01:51:52;;;;;;;2.95;2.38;;;;;;;3.74;59.92;102254.41;686520;28;139123;-53
2021/04/13 01:52:20;;;;;;;2.70;2.50;;;;;;;3.74;59.96;102242.88;689013;28;23414;-56
2021/04/13 01:52:43;;;;;;;2.50;2.38;;;;;;;3.71;60.02;102248.41;686568;28;138647;-54
2021/04/13 01:53:07;;;;;;;2.75;2.55;;;;;;;3.72;60.13;102250.97;690399;28;40802;-51
2021/04/13 01:53:34;;;;;;;2.90;2.70;;;;;;;3.73;59.98;102244.69;688166;28;93286;-52
2021/04/13 01:53:55;;;;;;;2.42;2.30;;;;;;;3.73;59.93;102250.03;686145;28;138066;-53
2021/04/13 01:54:16;;;;;;;2.28;2.17;;;;;;;3.73;59.94;102243.81;690265;28;23463;-55
2021/04/13 01:54:38;;;;;;;2.40;2.20;;;;;;;3.70;59.81;102249.34;691058;28;22398;-53
2021/04/13 01:55:05;;;;;;;2.42;2.03;;;;;;;3.70;59.95;102246.66;689149;28;45003;-51
2021/04/13 01:55:28;;;;;;;2.85;2.30;;;;;;;3.71;59.90;102248.41;687235;28;138071;-50
2021/04/13 01:55:51;;;;;;;2.50;2.30;;;;;;;3.71;60.04;102256.41;689060;28;69262;-56
2021/04/13 01:56:18;;;;;;;2.80;2.60;;;;;;;3.69;59.84;102245.81;687618;28;92933;-56
2021/04/13 01:56:53;;;;;;;2.67;2.47;;;;;;;3.68;60.11;102259.28;685864;28;60735;-51
2021/04/13 01:57:19;;;;;;;2.10;2.00;;;;;;;3.68;60.09;102256.59;684137;28;136609;-53
2021/04/13 01:57:43;;;;;;;2.50;2.03;;;;;;;3.68;60.23;102259.28;684123;28;138287;-52
2021/04/13 01:58:11;;;;;;;2.25;2.05;;;;;;;3.66;60.25;102256.69;684949;28;92195;-55
2021/04/13 01:58:38;;;;;;;2.63;2.42;;;;;;;3.67;60.19;102260.22;685022;28;136241;-52
2021/04/13 01:59:02;;;;;;;2.60;2.40;;;;;;;3.67;60.25;102254.88;687120;28;135969;-53
2021/04/13 01:59:26;;;;;;;2.57;2.37;;;;;;;3.69;59.98;102255.66;688642;28;93245;-51